Time;durP1;ratioP1;P1;durP2;ratioP2;P2;SDS_P1;SDS_P2;PMS_P1;PMS_P2;Temp;Humidity;BMP_temperature;BMP_pressure;BME280_temperature;BME280_humidity;BME280_pressure;Samples;Min_cycle;Max_cycle;Signal;HPM_P1;HPM_P2
2021/09/28 00:01:57;;;;;;;1.38;0.80;;;;;;;;;;4980504;28;20038;-81
2021/09/28 00:04:42;;;;;;;2.03;0.88;;;;;;;;;;4980143;28;20018;-80
2021/09/28 00:07:27;;;;;;;0.82;0.82;;;;;;;;;;4989441;28;20033;-80
2021/09/28 00:10:12;;;;;;;2.50;0.90;;;;;;;;;;4978133;28;20153;-79
2021/09/28 00:12:57;;;;;;;3.05;1.08;;;;;;;;;;4997900;28;20407;-81
2021/09/28 00:15:43;;;;;;;1.55;0.80;;;;;;;;;;4985673;28;20416;-82
2021/09/28 00:18:28;;;;;;;1.98;0.80;;;;;;;;;;4986246;28;20405;-81
2021/09/28 00:21:13;;;;;;;1.85;1.02;;;;;;;;;;4978459;28;20443;-82
2021/09/28 00:23:59;;;;;;;1.95;0.85;;;;;;;;;;4994705;28;20100;-82
2021/09/28 00:26:44;;;;;;;2.88;1.02;;;;;;;;;;4979043;28;20034;-81
2021/09/28 00:29:29;;;;;;;1.85;1.08;;;;;;;;;;4981336;28;20030;-81
2021/09/28 00:32:14;;;;;;;2.85;0.80;;;;;;;;;;4991936;28;20021;-81
2021/09/28 00:34:59;;;;;;;1.27;0.80;;;;;;;;;;4996932;28;20028;-82
2021/09/28 00:37:45;;;;;;;2.35;0.90;;;;;;;;;;4980491;28;20023;-82
2021/09/28 00:40:31;;;;;;;3.67;0.95;;;;;;;;;;4993126;28;20041;-82
2021/09/28 00:43:16;;;;;;;1.13;0.90;;;;;;;;;;4978692;28;20074;-82
2021/09/28 00:46:01;;;;;;;0.75;0.70;;;;;;;;;;4979983;28;20036;-82
2021/09/28 00:48:47;;;;;;;1.30;0.80;;;;;;;;;;4979227;28;20029;-82
2021/09/28 00:51:32;;;;;;;3.13;1.10;;;;;;;;;;4986774;28;20030;-81
2021/09/28 00:54:18;;;;;;;2.33;1.00;;;;;;;;;;4977797;28;20489;-82
2021/09/28 00:57:07;;;;;;;1.10;0.88;;;;;;;;;;4988753;28;20030;-81
2021/09/28 00:59:53;;;;;;;2.45;0.80;;;;;;;;;;4994407;28;20029;-82
2021/09/28 01:02:39;;;;;;;3.40;1.05;;;;;;;;;;4992907;28;20366;-82
2021/09/28 01:05:24;;;;;;;1.88;1.00;;;;;;;;;;4985521;28;20030;-81
2021/09/28 01:08:10;;;;;;;4.03;1.27;;;;;;;;;;4980974;28;20022;-81
2021/09/28 01:10:55;;;;;;;2.67;1.00;;;;;;;;;;4987437;28;20072;-81
2021/09/28 01:13:41;;;;;;;0.90;0.80;;;;;;;;;;4979838;28;20022;-81
2021/09/28 01:16:26;;;;;;;3.72;1.10;;;;;;;;;;4982209;28;20034;-82
2021/09/28 01:19:12;;;;;;;2.13;1.08;;;;;;;;;;4987629;28;20034;-82
2021/09/28 01:21:57;;;;;;;1.50;1.00;;;;;;;;;;4986210;28;20038;-81
2021/09/28 01:24:44;;;;;;;1.95;1.00;;;;;;;;;;4983990;28;20030;-82
2021/09/28 01:27:33;;;;;;;2.28;1.10;;;;;;;;;;4977782;28;20331;-82
2021/09/28 01:30:19;;;;;;;4.22;1.20;;;;;;;;;;4996165;28;20018;-82
2021/09/28 01:33:04;;;;;;;4.90;1.30;;;;;;;;;;4991459;28;20056;-81
2021/09/28 01:35:49;;;;;;;4.38;1.42;;;;;;;;;;4984216;28;20018;-81
2021/09/28 01:38:35;;;;;;;2.58;1.15;;;;;;;;;;4995268;28;20064;-81
2021/09/28 01:41:20;;;;;;;2.47;1.10;;;;;;;;;;4984404;28;20370;-82
2021/09/28 01:44:10;;;;;;;5.00;1.20;;;;;;;;;;4995042;28;20368;-81
2021/09/28 01:46:55;;;;;;;4.35;1.33;;;;;;;;;;4991119;28;20067;-81
2021/09/28 01:49:40;;;;;;;3.03;0.93;;;;;;;;;;4992251;28;20432;-81
2021/09/28 01:52:26;;;;;;;3.28;1.20;;;;;;;;;;4995397;28;20025;-81
2021/09/28 01:55:11;;;;;;;3.65;1.17;;;;;;;;;;4992218;28;20026;-81
2021/09/28 01:57:56;;;;;;;2.33;1.27;;;;;;;;;;4978342;28;20201;-81
2021/09/28 02:00:41;;;;;;;6.80;1.55;;;;;;;;;;4995337;28;20041;-81
2021/09/28 02:03:27;;;;;;;5.72;1.50;;;;;;;;;;4977501;28;20030;-82
2021/09/28 02:06:13;;;;;;;1.75;1.00;;;;;;;;;;4994172;28;20432;-81
2021/09/28 02:08:58;;;;;;;2.90;1.13;;;;;;;;;;4984257;28;20507;-81
2021/09/28 02:11:43;;;;;;;4.28;1.60;;;;;;;;;;4985942;28;20107;-81
2021/09/28 02:14:29;;;;;;;4.05;1.15;;;;;;;;;;4977434;28;20290;-82
2021/09/28 02:17:14;;;;;;;3.72;1.10;;;;;;;;;;4986112;28;20040;-81
2021/09/28 02:19:59;;;;;;;5.30;1.30;;;;;;;;;;4988231;28;20026;-80
2021/09/28 02:22:44;;;;;;;6.38;1.40;;;;;;;;;;4985373;28;20384;-80
2021/09/28 02:25:30;;;;;;;9.60;1.77;;;;;;;;;;4987863;28;20034;-81
2021/09/28 02:28:15;;;;;;;5.43;1.27;;;;;;;;;;4995176;28;20022;-82
2021/09/28 02:31:00;;;;;;;3.28;1.25;;;;;;;;;;4988283;28;20029;-82
2021/09/28 02:33:46;;;;;;;3.15;1.40;;;;;;;;;;4989707;28;20021;-82
2021/09/28 02:36:31;;;;;;;2.55;1.20;;;;;;;;;;4990217;28;20025;-80
2021/09/28 02:39:18;;;;;;;5.70;1.60;;;;;;;;;;4982323;28;20021;-80
2021/09/28 02:42:03;;;;;;;8.80;1.95;;;;;;;;;;4985402;28;20041;-81
2021/09/28 02:44:51;;;;;;;4.88;1.30;;;;;;;;;;4982077;28;20033;-81
2021/09/28 02:47:36;;;;;;;4.45;1.40;;;;;;;;;;4985324;28;20020;-81
2021/09/28 02:50:22;;;;;;;5.05;1.52;;;;;;;;;;4991624;28;20435;-82
2021/09/28 02:53:07;;;;;;;4.00;0.93;;;;;;;;;;4990403;28;20032;-82
2021/09/28 02:55:52;;;;;;;7.70;1.40;;;;;;;;;;4992542;28;20521;-81
2021/09/28 02:58:37;;;;;;;5.07;1.17;;;;;;;;;;4978768;28;20041;-81
2021/09/28 03:01:23;;;;;;;4.85;1.27;;;;;;;;;;4989130;28;20034;-81
2021/09/28 03:04:08;;;;;;;3.78;1.15;;;;;;;;;;4987514;28;20073;-82
2021/09/28 03:06:53;;;;;;;7.40;2.05;;;;;;;;;;4977350;28;20029;-82
2021/09/28 03:09:38;;;;;;;5.63;1.30;;;;;;;;;;5005473;28;20028;-82
2021/09/28 03:12:23;;;;;;;4.72;1.13;;;;;;;;;;4988580;28;20021;-82
2021/09/28 03:15:09;;;;;;;4.22;1.17;;;;;;;;;;4979387;28;20104;-82
2021/09/28 03:17:54;;;;;;;5.63;1.30;;;;;;;;;;4990842;28;20113;-81
2021/09/28 03:20:39;;;;;;;6.25;1.65;;;;;;;;;;4990642;28;20026;-81
2021/09/28 03:23:25;;;;;;;2.42;1.15;;;;;;;;;;4989924;28;20119;-81
2021/09/28 03:26:10;;;;;;;6.15;1.20;;;;;;;;;;4980952;28;20025;-82
2021/09/28 03:28:55;;;;;;;4.22;1.15;;;;;;;;;;4992873;28;20477;-82
2021/09/28 03:31:40;;;;;;;4.78;1.92;;;;;;;;;;4990473;28;20446;-82
2021/09/28 03:34:29;;;;;;;3.28;1.42;;;;;;;;;;4985984;28;20467;-82
2021/09/28 03:37:14;;;;;;;6.22;1.58;;;;;;;;;;4989805;28;20026;-81
2021/09/28 03:39:59;;;;;;;3.28;1.45;;;;;;;;;;4980647;28;20030;-81
2021/09/28 03:42:46;;;;;;;4.15;1.42;;;;;;;;;;4977871;28;20340;-82
2021/09/28 03:45:31;;;;;;;4.45;1.20;;;;;;;;;;4978570;28;20026;-82
2021/09/28 03:48:17;;;;;;;3.05;1.40;;;;;;;;;;4980511;28;20033;-81
2021/09/28 03:51:03;;;;;;;3.60;1.30;;;;;;;;;;4984411;28;20117;-81
2021/09/28 03:53:51;;;;;;;4.47;1.33;;;;;;;;;;4984874;28;20030;-81
2021/09/28 03:56:36;;;;;;;4.35;1.65;;;;;;;;;;4985259;28;20048;-82
2021/09/28 03:59:21;;;;;;;8.20;1.55;;;;;;;;;;4972537;28;20027;-81
2021/09/28 04:02:06;;;;;;;5.13;1.30;;;;;;;;;;4985877;28;20037;-81
2021/09/28 04:04:52;;;;;;;3.78;1.38;;;;;;;;;;4975439;28;20061;-81
2021/09/28 04:07:38;;;;;;;5.70;1.33;;;;;;;;;;4977518;28;20022;-82
2021/09/28 04:10:23;;;;;;;2.67;1.10;;;;;;;;;;4985517;28;20038;-81
2021/09/28 04:13:09;;;;;;;4.13;1.67;;;;;;;;;;4984566;28;20114;-81
2021/09/28 04:15:55;;;;;;;7.30;2.30;;;;;;;;;;4974798;28;20036;-81
2021/09/28 04:18:40;;;;;;;3.05;1.15;;;;;;;;;;4998693;28;20632;-82
2021/09/28 04:21:26;;;;;;;3.00;1.25;;;;;;;;;;4979036;28;20030;-82
2021/09/28 04:24:12;;;;;;;3.85;1.60;;;;;;;;;;4973681;28;20027;-81
2021/09/28 04:26:57;;;;;;;4.68;1.13;;;;;;;;;;4984712;28;20507;-82
2021/09/28 04:29:42;;;;;;;4.95;1.35;;;;;;;;;;4987145;28;20315;-82
2021/09/28 04:32:28;;;;;;;5.82;1.58;;;;;;;;;;4983600;28;20085;-82
2021/09/28 04:35:13;;;;;;;6.35;1.75;;;;;;;;;;4978089;28;20458;-81
2021/09/28 04:37:58;;;;;;;3.40;1.70;;;;;;;;;;4975354;28;20041;-81
2021/09/28 04:40:43;;;;;;;6.75;1.40;;;;;;;;;;4974151;28;20299;-81
2021/09/28 04:43:28;;;;;;;3.05;1.50;;;;;;;;;;4987116;28;20036;-81
2021/09/28 04:46:15;;;;;;;4.70;1.60;;;;;;;;;;4977238;28;20037;-80
2021/09/28 04:49:00;;;;;;;7.47;1.50;;;;;;;;;;4976669;28;20132;-80
2021/09/28 04:51:46;;;;;;;6.05;1.83;;;;;;;;;;4985148;28;20116;-81
2021/09/28 04:54:38;;;;;;;8.65;1.55;;;;;;;;;;4977691;28;20045;-82
2021/09/28 04:57:25;;;;;;;6.40;1.65;;;;;;;;;;4991650;28;20046;-81
2021/09/28 05:00:10;;;;;;;7.50;1.95;;;;;;;;;;4981486;28;20049;-81
2021/09/28 05:02:56;;;;;;;4.78;1.50;;;;;;;;;;4986934;28;20092;-81
2021/09/28 05:05:42;;;;;;;4.72;1.42;;;;;;;;;;4982052;28;20068;-81
2021/09/28 05:08:27;;;;;;;7.60;1.55;;;;;;;;;;4990494;28;20024;-81
2021/09/28 05:11:13;;;;;;;4.22;1.60;;;;;;;;;;4977882;28;20026;-82
2021/09/28 05:13:58;;;;;;;12.90;1.88;;;;;;;;;;4987483;28;20034;-83
2021/09/28 05:16:43;;;;;;;7.47;1.38;;;;;;;;;;4981209;28;20259;-83
2021/09/28 05:19:28;;;;;;;6.82;2.10;;;;;;;;;;4984027;28;20046;-81
2021/09/28 05:22:14;;;;;;;4.35;1.60;;;;;;;;;;4990461;28;20107;-82
2021/09/28 05:24:59;;;;;;;4.30;1.88;;;;;;;;;;4983781;28;20022;-82
2021/09/28 05:27:44;;;;;;;3.72;1.40;;;;;;;;;;4992488;28;20299;-83
2021/09/28 05:30:29;;;;;;;3.90;1.80;;;;;;;;;;4990649;28;20029;-85
2021/09/28 05:33:14;;;;;;;11.35;1.90;;;;;;;;;;4980932;28;20143;-83
2021/09/28 05:36:00;;;;;;;4.05;1.85;;;;;;;;;;4997579;28;20033;-83
2021/09/28 05:38:45;;;;;;;5.32;1.85;;;;;;;;;;4993061;28;20025;-80
2021/09/28 05:41:30;;;;;;;6.75;2.40;;;;;;;;;;4981850;28;20112;-83
2021/09/28 05:44:15;;;;;;;4.63;1.80;;;;;;;;;;4984448;28;20277;-85
2021/09/28 05:47:02;;;;;;;4.10;2.22;;;;;;;;;;4980151;28;20081;-85
2021/09/28 05:49:47;;;;;;;6.78;2.17;;;;;;;;;;4991389;28;20037;-83
2021/09/28 05:52:32;;;;;;;6.97;2.20;;;;;;;;;;4982862;28;20113;-84
2021/09/28 05:55:18;;;;;;;6.68;2.30;;;;;;;;;;4999480;28;20026;-83
2021/09/28 05:58:03;;;;;;;6.93;1.70;;;;;;;;;;5011814;28;20050;-92
2021/09/28 06:00:49;;;;;;;9.43;3.30;;;;;;;;;;5013081;28;20136;-90
2021/09/28 06:03:34;;;;;;;6.55;1.98;;;;;;;;;;5019784;28;20060;-92
2021/09/28 06:06:23;;;;;;;6.78;2.70;;;;;;;;;;5008698;28;20122;-94
2021/09/28 06:09:40;;;;;;;;;;;;;;;;;;;;;
2021/09/28 06:31:41;;;;;;;8.65;2.15;;;;;;;;;;5240249;22;20080;-94
2021/09/28 07:04:13;;;;;;;9.50;2.45;;;;;;;;;;5544697;22;20057;-88
2021/09/28 07:07:01;;;;;;;30.60;19.30;;;;;;;;;;5024945;28;20025;-86
2021/09/28 07:09:46;;;;;;;12.85;6.72;;;;;;;;;;5013785;28;20113;-87
2021/09/28 07:12:32;;;;;;;8.23;2.15;;;;;;;;;;5028642;28;20022;-86
2021/09/28 07:15:17;;;;;;;7.07;2.53;;;;;;;;;;5029735;28;20026;-90
2021/09/28 07:18:04;;;;;;;6.75;2.65;;;;;;;;;;5024581;28;20030;-86
2021/09/28 07:20:52;;;;;;;7.18;2.22;;;;;;;;;;5013963;28;20022;-89
2021/09/28 07:23:38;;;;;;;8.27;2.60;;;;;;;;;;5011863;28;20030;-87
2021/09/28 07:26:23;;;;;;;9.57;2.58;;;;;;;;;;5016314;28;20536;-87
2021/09/28 07:29:08;;;;;;;8.63;2.40;;;;;;;;;;5022562;28;20026;-87
2021/09/28 07:31:54;;;;;;;7.60;2.50;;;;;;;;;;5015052;28;20036;-86
2021/09/28 07:34:39;;;;;;;8.27;2.90;;;;;;;;;;5022528;28;20029;-88
2021/09/28 07:37:28;;;;;;;13.25;3.13;;;;;;;;;;5011015;28;20033;-89
2021/09/28 07:40:13;;;;;;;8.27;3.57;;;;;;;;;;5023771;28;20104;-87
2021/09/28 07:42:59;;;;;;;28.98;17.30;;;;;;;;;;5007264;28;20448;-89
2021/09/28 07:45:44;;;;;;;12.52;5.40;;;;;;;;;;4996084;28;20026;-89
2021/09/28 07:48:30;;;;;;;11.93;3.63;;;;;;;;;;5000417;28;20028;-88
2021/09/28 07:51:15;;;;;;;13.07;3.40;;;;;;;;;;5010494;28;20030;-90
2021/09/28 07:54:01;;;;;;;9.57;3.90;;;;;;;;;;5008526;28;20048;-88
2021/09/28 07:56:46;;;;;;;9.65;3.63;;;;;;;;;;5009090;28;20026;-89
2021/09/28 07:59:31;;;;;;;9.73;3.45;;;;;;;;;;5004303;28;20652;-89
2021/09/28 08:02:19;;;;;;;9.02;3.22;;;;;;;;;;5008905;28;20022;-86
2021/09/28 08:05:06;;;;;;;9.90;3.22;;;;;;;;;;5006833;28;20042;-88
2021/09/28 08:07:51;;;;;;;8.13;3.25;;;;;;;;;;5006272;28;20057;-86
2021/09/28 08:10:37;;;;;;;10.63;3.25;;;;;;;;;;5006582;28;20169;-89
2021/09/28 08:13:23;;;;;;;9.77;3.40;;;;;;;;;;5009582;28;20030;-88
2021/09/28 08:16:10;;;;;;;5.55;3.10;;;;;;;;;;5006113;28;20033;-88
2021/09/28 08:18:59;;;;;;;10.90;3.40;;;;;;;;;;5004674;28;20026;-89
2021/09/28 08:21:44;;;;;;;8.88;3.40;;;;;;;;;;5007796;28;20028;-88
2021/09/28 08:24:34;;;;;;;12.57;3.88;;;;;;;;;;5004096;28;20188;-87
2021/09/28 08:30:26;;;;;;;4.53;2.65;;;;;;;;;;5007242;28;20021;-89
2021/09/28 08:33:12;;;;;;;9.18;4.15;;;;;;;;;;5009091;28;20036;-89
2021/09/28 08:35:57;;;;;;;17.42;7.72;;;;;;;;;;4986406;28;20026;-89
2021/09/28 08:38:43;;;;;;;10.82;4.00;;;;;;;;;;5009864;28;20006;-89
2021/09/28 08:41:31;;;;;;;10.45;3.65;;;;;;;;;;5008038;28;20022;-88
2021/09/28 08:44:24;;;;;;;7.43;3.10;;;;;;;;;;5003849;28;20459;-87
2021/09/28 08:47:09;;;;;;;9.73;3.45;;;;;;;;;;5007623;28;20116;-87
2021/09/28 08:49:54;;;;;;;7.93;3.33;;;;;;;;;;5008747;28;20547;-88
2021/09/28 08:52:46;;;;;;;10.45;3.30;;;;;;;;;;4997683;28;20026;-90
2021/09/28 08:55:32;;;;;;;8.60;3.13;;;;;;;;;;4992733;28;20145;-90
2021/09/28 08:58:22;;;;;;;8.27;2.97;;;;;;;;;;5007354;28;20041;-89
2021/09/28 09:01:08;;;;;;;8.10;2.72;;;;;;;;;;5015421;28;20025;-87
2021/09/28 09:04:13;;;;;;;20.38;12.45;;;;;;;;;;5010151;28;20049;-91
2021/09/28 09:06:58;;;;;;;9.63;4.20;;;;;;;;;;5008478;28;20034;-87
2021/09/28 09:09:47;;;;;;;12.20;4.28;;;;;;;;;;4999329;28;20018;-85
2021/09/28 09:12:35;;;;;;;9.02;4.15;;;;;;;;;;5001023;28;20022;-86
2021/09/28 09:19:08;;;;;;;9.55;3.45;;;;;;;;;;5007116;28;20492;-86
2021/09/28 09:21:55;;;;;;;9.07;3.92;;;;;;;;;;5006223;28;20103;-85
2021/09/28 09:24:50;;;;;;;10.77;3.20;;;;;;;;;;5006257;28;20485;-87
2021/09/28 09:27:36;;;;;;;10.07;3.83;;;;;;;;;;5004384;28;20056;-86
2021/09/28 09:30:22;;;;;;;11.00;4.18;;;;;;;;;;5003056;28;20030;-86
2021/09/28 09:33:07;;;;;;;9.73;3.88;;;;;;;;;;5004487;28;20018;-87
2021/09/28 09:35:57;;;;;;;9.70;4.00;;;;;;;;;;5003355;28;20032;-87
2021/09/28 09:38:43;;;;;;;8.02;3.58;;;;;;;;;;5003740;28;20535;-85
2021/09/28 09:41:30;;;;;;;7.65;3.10;;;;;;;;;;5009980;28;20030;-88
2021/09/28 09:44:16;;;;;;;7.90;3.15;;;;;;;;;;5008715;28;20029;-87
2021/09/28 09:47:01;;;;;;;18.13;11.65;;;;;;;;;;5012292;28;20113;-86
2021/09/28 09:49:46;;;;;;;10.63;4.15;;;;;;;;;;5012073;28;20022;-88
2021/09/28 09:52:32;;;;;;;8.90;3.90;;;;;;;;;;5007332;28;20464;-89
2021/09/28 09:55:28;;;;;;;5.88;2.28;;;;;;;;;;5012013;28;20152;-87
2021/09/28 09:58:13;;;;;;;11.15;2.92;;;;;;;;;;5009380;28;20065;-87
2021/09/28 10:00:58;;;;;;;5.22;2.72;;;;;;;;;;5008284;28;20163;-86
2021/09/28 10:03:44;;;;;;;5.78;2.40;;;;;;;;;;5007605;28;20531;-85
2021/09/28 10:06:29;;;;;;;6.38;2.88;;;;;;;;;;5010867;28;20059;-89
2021/09/28 10:09:20;;;;;;;9.10;3.45;;;;;;;;;;5012522;28;20032;-84
2021/09/28 10:12:06;;;;;;;7.05;2.33;;;;;;;;;;4998008;28;20065;-88
2021/09/28 10:15:04;;;;;;;8.07;3.03;;;;;;;;;;5010468;28;20503;-87
2021/09/28 10:17:49;;;;;;;6.25;2.25;;;;;;;;;;5010950;28;20026;-87
2021/09/28 10:20:35;;;;;;;5.68;2.28;;;;;;;;;;5007135;28;20035;-86
2021/09/28 10:23:24;;;;;;;9.57;2.53;;;;;;;;;;5010702;28;20022;-86
2021/09/28 10:26:15;;;;;;;6.70;2.28;;;;;;;;;;5003858;28;20026;-89
2021/09/28 10:29:21;;;;;;;6.88;2.65;;;;;;;;;;5010023;28;20076;-84
2021/09/28 10:32:24;;;;;;;5.55;2.00;;;;;;;;;;5010431;28;20045;-86
2021/09/28 10:35:12;;;;;;;6.22;2.63;;;;;;;;;;5006215;28;20129;-85
2021/09/28 10:38:02;;;;;;;7.07;2.83;;;;;;;;;;5010509;28;20029;-89
2021/09/28 10:40:48;;;;;;;6.28;2.40;;;;;;;;;;5007808;28;20100;-86
2021/09/28 10:43:34;;;;;;;6.93;2.60;;;;;;;;;;5010454;28;20022;-82
2021/09/28 10:46:37;;;;;;;5.40;2.50;;;;;;;;;;5009786;28;20087;-84
2021/09/28 10:49:24;;;;;;;5.57;2.38;;;;;;;;;;5020562;28;20016;-83
2021/09/28 10:52:21;;;;;;;6.80;2.70;;;;;;;;;;5002425;28;20068;-83
2021/09/28 10:55:07;;;;;;;6.15;2.20;;;;;;;;;;5007406;28;20018;-81
2021/09/28 10:57:55;;;;;;;4.97;2.70;;;;;;;;;;5009700;28;20022;-81
2021/09/28 11:00:41;;;;;;;8.48;2.42;;;;;;;;;;5006635;28;20884;-81
2021/09/28 11:03:41;;;;;;;6.47;2.25;;;;;;;;;;5008088;28;20378;-83
2021/09/28 11:06:45;;;;;;;7.40;2.80;;;;;;;;;;5006668;28;20022;-82
2021/09/28 11:09:47;;;;;;;6.40;2.97;;;;;;;;;;5003494;28;20026;-85
2021/09/28 11:12:32;;;;;;;9.80;3.00;;;;;;;;;;5006859;28;20037;-86
2021/09/28 11:15:25;;;;;;;6.88;2.60;;;;;;;;;;5001106;28;20519;-85
2021/09/28 11:18:11;;;;;;;5.38;2.30;;;;;;;;;;4998037;28;20031;-85
2021/09/28 11:21:12;;;;;;;7.22;2.42;;;;;;;;;;4995516;28;20034;-82
2021/09/28 11:23:58;;;;;;;6.80;2.17;;;;;;;;;;4980393;28;20495;-83
2021/09/28 11:26:44;;;;;;;5.05;2.20;;;;;;;;;;4990895;28;20090;-86
2021/09/28 11:29:29;;;;;;;4.78;2.15;;;;;;;;;;4994654;28;20433;-86
2021/09/28 11:32:15;;;;;;;6.50;2.17;;;;;;;;;;4994331;28;20265;-86
2021/09/28 11:35:02;;;;;;;7.68;2.72;;;;;;;;;;4987264;28;20025;-86
2021/09/28 11:37:52;;;;;;;7.57;2.88;;;;;;;;;;4990022;28;20298;-86
2021/09/28 11:40:39;;;;;;;4.32;2.40;;;;;;;;;;5001500;28;20052;-86
2021/09/28 11:43:25;;;;;;;8.75;3.20;;;;;;;;;;5010117;28;20377;-86
2021/09/28 11:46:15;;;;;;;3.97;2.40;;;;;;;;;;5006723;28;20030;-86
2021/09/28 11:49:04;;;;;;;5.13;2.10;;;;;;;;;;5006729;28;20109;-86
2021/09/28 11:51:50;;;;;;;13.75;9.40;;;;;;;;;;5008483;28;20034;-86
2021/09/28 11:54:43;;;;;;;9.15;5.88;;;;;;;;;;5004903;28;20472;-87
2021/09/28 11:57:29;;;;;;;5.05;2.80;;;;;;;;;;5021668;28;20087;-83
2021/09/28 12:00:14;;;;;;;7.05;3.45;;;;;;;;;;5006098;28;20021;-83
2021/09/28 12:03:07;;;;;;;7.38;3.10;;;;;;;;;;5007674;28;20099;-87
2021/09/28 12:08:37;;;;;;;5.57;3.20;;;;;;;;;;5003512;28;20037;-91
2021/09/28 12:11:22;;;;;;;6.47;2.70;;;;;;;;;;5005859;28;20056;-82
2021/09/28 12:14:08;;;;;;;7.40;3.00;;;;;;;;;;5004569;28;20384;-84
2021/09/28 12:16:53;;;;;;;7.47;3.55;;;;;;;;;;5006084;28;20026;-84
2021/09/28 12:19:44;;;;;;;5.75;3.25;;;;;;;;;;5007143;28;20052;-84
2021/09/28 12:22:30;;;;;;;9.90;2.90;;;;;;;;;;5005347;28;20570;-85
2021/09/28 12:25:15;;;;;;;5.30;2.90;;;;;;;;;;5004546;28;20014;-83
2021/09/28 12:28:02;;;;;;;9.98;3.35;;;;;;;;;;5006459;28;20534;-84
2021/09/28 12:30:47;;;;;;;7.18;3.60;;;;;;;;;;5003653;28;20152;-84
2021/09/28 12:33:33;;;;;;;8.20;3.20;;;;;;;;;;5008944;28;20028;-83
2021/09/28 12:36:20;;;;;;;13.68;5.65;;;;;;;;;;5009103;28;20026;-87
2021/09/28 12:39:19;;;;;;;17.90;15.18;;;;;;;;;;5016482;28;20022;-92
2021/09/28 12:42:06;;;;;;;9.30;4.95;;;;;;;;;;5010998;28;20100;-87
2021/09/28 12:44:56;;;;;;;6.00;3.53;;;;;;;;;;5015241;28;20017;-89
2021/09/28 12:47:43;;;;;;;7.75;3.20;;;;;;;;;;5016758;28;20018;-88
2021/09/28 12:50:31;;;;;;;7.40;3.63;;;;;;;;;;4995716;28;20033;-90
2021/09/28 12:53:17;;;;;;;6.13;3.50;;;;;;;;;;5008904;28;20049;-85
2021/09/28 12:56:05;;;;;;;12.88;3.22;;;;;;;;;;5007069;28;20113;-85
2021/09/28 12:58:50;;;;;;;7.40;3.88;;;;;;;;;;5008834;28;20108;-85
2021/09/28 13:01:46;;;;;;;7.65;4.00;;;;;;;;;;5007187;28;20037;-84
2021/09/28 13:04:32;;;;;;;7.72;4.30;;;;;;;;;;5008303;28;20050;-84
2021/09/28 13:07:18;;;;;;;7.57;3.95;;;;;;;;;;5007504;28;20064;-87
2021/09/28 13:10:03;;;;;;;7.72;4.00;;;;;;;;;;5010660;28;20030;-87
2021/09/28 13:12:49;;;;;;;12.85;4.10;;;;;;;;;;5009005;28;20080;-87
2021/09/28 13:15:34;;;;;;;10.25;4.30;;;;;;;;;;5009993;28;20500;-87
2021/09/28 13:18:19;;;;;;;6.45;3.90;;;;;;;;;;5006864;28;20076;-86
2021/09/28 13:21:05;;;;;;;6.80;4.03;;;;;;;;;;5009763;28;20056;-85
2021/09/28 13:23:50;;;;;;;10.52;4.40;;;;;;;;;;5007640;28;20032;-83
2021/09/28 13:26:36;;;;;;;7.10;4.03;;;;;;;;;;5012292;28;20017;-84
2021/09/28 13:29:21;;;;;;;6.10;3.97;;;;;;;;;;5011412;28;20570;-85
2021/09/28 13:32:06;;;;;;;7.68;4.10;;;;;;;;;;5014951;28;20034;-83
2021/09/28 13:34:52;;;;;;;6.70;3.90;;;;;;;;;;5011789;28;20037;-82
2021/09/28 13:37:38;;;;;;;7.88;3.17;;;;;;;;;;5009890;28;20493;-86
2021/09/28 13:40:23;;;;;;;7.38;3.78;;;;;;;;;;5011091;28;20021;-82
2021/09/28 13:43:08;;;;;;;4.97;3.30;;;;;;;;;;5011103;28;20139;-83
2021/09/28 13:45:55;;;;;;;8.70;4.40;;;;;;;;;;5011282;28;20018;-83
2021/09/28 13:48:40;;;;;;;6.47;3.30;;;;;;;;;;5008883;28;20317;-83
2021/09/28 13:51:26;;;;;;;9.88;3.40;;;;;;;;;;5010967;28;20022;-84
2021/09/28 13:54:11;;;;;;;8.18;5.18;;;;;;;;;;5010344;28;20456;-84
2021/09/28 13:56:57;;;;;;;10.80;6.22;;;;;;;;;;5009937;28;20095;-86
2021/09/28 13:59:42;;;;;;;7.00;4.68;;;;;;;;;;5011231;28;20076;-84
2021/09/28 14:02:27;;;;;;;6.95;4.00;;;;;;;;;;5008880;28;20063;-84
2021/09/28 14:05:12;;;;;;;6.57;3.90;;;;;;;;;;5011130;28;20046;-84
2021/09/28 14:07:58;;;;;;;10.50;4.80;;;;;;;;;;5023050;28;20095;-86
2021/09/28 14:10:43;;;;;;;8.55;4.30;;;;;;;;;;5010318;28;20025;-82
2021/09/28 14:13:28;;;;;;;7.18;3.42;;;;;;;;;;4998987;28;20366;-81
2021/09/28 14:16:14;;;;;;;6.68;4.20;;;;;;;;;;5008185;28;20014;-82
2021/09/28 14:18:59;;;;;;;8.50;3.80;;;;;;;;;;5009233;28;20062;-84
2021/09/28 14:21:45;;;;;;;6.13;3.42;;;;;;;;;;5010533;28;20441;-81
2021/09/28 14:24:30;;;;;;;7.22;3.85;;;;;;;;;;5008107;28;20037;-80
2021/09/28 14:27:15;;;;;;;6.63;3.53;;;;;;;;;;5009610;28;20072;-79
2021/09/28 14:30:00;;;;;;;5.78;3.22;;;;;;;;;;5007357;28;20036;-79
2021/09/28 14:32:46;;;;;;;8.90;3.85;;;;;;;;;;5009868;28;20021;-79
2021/09/28 14:35:31;;;;;;;5.60;3.35;;;;;;;;;;5008756;28;20033;-80
2021/09/28 14:38:16;;;;;;;6.05;3.83;;;;;;;;;;5009448;28;20533;-82
2021/09/28 14:41:03;;;;;;;6.13;3.67;;;;;;;;;;5008614;28;20029;-82
2021/09/28 14:43:48;;;;;;;13.98;9.85;;;;;;;;;;5007611;28;20112;-80
2021/09/28 14:46:34;;;;;;;18.90;13.85;;;;;;;;;;5023409;28;20065;-79
2021/09/28 14:49:19;;;;;;;6.85;4.55;;;;;;;;;;5006231;28;20041;-79
2021/09/28 14:52:05;;;;;;;5.57;3.58;;;;;;;;;;5008826;28;20045;-79
2021/09/28 14:54:50;;;;;;;5.55;3.33;;;;;;;;;;5006022;28;20092;-78
2021/09/28 14:57:35;;;;;;;5.25;3.40;;;;;;;;;;5005979;28;20030;-78
2021/09/28 15:00:20;;;;;;;7.00;3.78;;;;;;;;;;5008028;28;20037;-81
2021/09/28 15:03:06;;;;;;;7.70;3.80;;;;;;;;;;5008255;28;20037;-80
2021/09/28 15:05:51;;;;;;;8.15;3.60;;;;;;;;;;5007265;28;20107;-79
2021/09/28 15:08:36;;;;;;;7.13;3.85;;;;;;;;;;5018540;28;20033;-78
2021/09/28 15:11:23;;;;;;;6.75;3.47;;;;;;;;;;5007129;28;20084;-78
2021/09/28 15:14:09;;;;;;;6.75;3.75;;;;;;;;;;5008210;28;20026;-79
2021/09/28 15:16:54;;;;;;;10.50;3.63;;;;;;;;;;5022087;28;20057;-79
2021/09/28 15:19:40;;;;;;;9.85;4.07;;;;;;;;;;5008813;28;20021;-79
2021/09/28 15:22:26;;;;;;;9.52;3.97;;;;;;;;;;5007212;28;20112;-78
2021/09/28 15:25:12;;;;;;;7.47;4.55;;;;;;;;;;5008747;28;20041;-78
2021/09/28 15:27:57;;;;;;;12.55;5.38;;;;;;;;;;5007703;28;20494;-79
2021/09/28 15:30:42;;;;;;;5.65;3.50;;;;;;;;;;5002272;28;20149;-80
2021/09/28 15:33:28;;;;;;;8.30;3.70;;;;;;;;;;4981661;28;20031;-79
2021/09/28 15:36:13;;;;;;;7.78;4.40;;;;;;;;;;4987080;28;20052;-81
2021/09/28 15:39:03;;;;;;;6.35;3.42;;;;;;;;;;5008788;28;20097;-79
2021/09/28 15:41:48;;;;;;;5.57;3.95;;;;;;;;;;5007053;28;20041;-80
2021/09/28 15:44:34;;;;;;;46.15;34.15;;;;;;;;;;5003584;28;20038;-82
2021/09/28 15:47:19;;;;;;;9.98;5.70;;;;;;;;;;5003130;28;20035;-81
2021/09/28 15:50:05;;;;;;;6.00;3.70;;;;;;;;;;5004116;28;20028;-82
2021/09/28 15:52:50;;;;;;;7.15;3.55;;;;;;;;;;5008266;28;20044;-86
2021/09/28 15:55:35;;;;;;;6.10;3.80;;;;;;;;;;5023096;28;20021;-88
2021/09/28 15:58:20;;;;;;;11.10;7.13;;;;;;;;;;5005425;28;20026;-87
2021/09/28 16:01:06;;;;;;;199.98;178.68;;;;;;;;;;5005199;28;20390;-86
2021/09/28 16:03:51;;;;;;;439.05;391.02;;;;;;;;;;5007136;28;20054;-86
2021/09/28 16:06:36;;;;;;;157.35;140.90;;;;;;;;;;5009251;28;20040;-90
2021/09/28 16:09:22;;;;;;;130.77;88.63;;;;;;;;;;5008572;28;20160;-86
2021/09/28 16:12:07;;;;;;;26.30;15.85;;;;;;;;;;5008146;28;20389;-86
2021/09/28 16:14:52;;;;;;;8.57;5.18;;;;;;;;;;5009071;28;20065;-86
2021/09/28 16:17:38;;;;;;;11.90;4.75;;;;;;;;;;5006593;28;20029;-86
2021/09/28 16:20:26;;;;;;;8.45;3.63;;;;;;;;;;5009588;28;20029;-87
2021/09/28 16:23:12;;;;;;;7.90;3.42;;;;;;;;;;5007720;28;20504;-86
2021/09/28 16:25:57;;;;;;;8.77;4.32;;;;;;;;;;5010291;28;20116;-87
2021/09/28 16:28:43;;;;;;;8.52;4.13;;;;;;;;;;5007132;28;20028;-90
2021/09/28 16:31:37;;;;;;;8.45;3.35;;;;;;;;;;4991013;28;20029;-88
2021/09/28 16:34:23;;;;;;;7.50;3.15;;;;;;;;;;5008557;28;20022;-87
2021/09/28 16:37:08;;;;;;;5.57;3.25;;;;;;;;;;5006940;28;20018;-88
2021/09/28 16:39:53;;;;;;;5.15;3.13;;;;;;;;;;5015376;28;20029;-89
2021/09/28 16:42:39;;;;;;;73.10;55.17;;;;;;;;;;5011721;28;20026;-89
2021/09/28 16:45:25;;;;;;;23.60;14.68;;;;;;;;;;5015106;28;20025;-89
2021/09/28 16:48:10;;;;;;;7.15;4.32;;;;;;;;;;5024224;28;20085;-86
2021/09/28 16:50:56;;;;;;;8.23;3.72;;;;;;;;;;5007517;28;20030;-87
2021/09/28 16:53:42;;;;;;;5.68;2.53;;;;;;;;;;5019486;28;20029;-85
2021/09/28 16:56:27;;;;;;;7.38;3.13;;;;;;;;;;5008020;28;20030;-86
2021/09/28 16:59:12;;;;;;;8.65;2.85;;;;;;;;;;5008742;28;20026;-82
2021/09/28 17:02:01;;;;;;;4.38;2.85;;;;;;;;;;5008625;28;20048;-83
2021/09/28 17:04:46;;;;;;;8.68;3.47;;;;;;;;;;5005226;28;20073;-84
2021/09/28 17:07:31;;;;;;;18.00;13.07;;;;;;;;;;5008444;28;20048;-83
2021/09/28 17:10:16;;;;;;;23.25;13.77;;;;;;;;;;5007148;28;20109;-85
2021/09/28 17:13:02;;;;;;;8.38;3.72;;;;;;;;;;4994733;28;20439;-87
2021/09/28 17:15:47;;;;;;;4.88;2.70;;;;;;;;;;5008114;28;20114;-85
2021/09/28 17:18:34;;;;;;;5.57;3.20;;;;;;;;;;5008194;28;20087;-85
2021/09/28 17:21:19;;;;;;;6.97;3.63;;;;;;;;;;5007014;28;20026;-86
2021/09/28 17:24:06;;;;;;;6.63;3.33;;;;;;;;;;5005255;28;20030;-86
2021/09/28 17:26:51;;;;;;;7.28;3.05;;;;;;;;;;5016893;28;20038;-85
2021/09/28 17:29:37;;;;;;;6.35;3.08;;;;;;;;;;5004109;28;20057;-84
2021/09/28 17:32:22;;;;;;;5.85;3.33;;;;;;;;;;5003992;28;20108;-86
2021/09/28 17:35:11;;;;;;;21.55;15.70;;;;;;;;;;5000703;28;20108;-84